sensor_id;sensor_type;location;lat;lon;timestamp;P1;durP1;ratioP1;P2;durP2;ratioP2
78207;SDS011;67481;50.244;18.288;2023-02-01T08:56:37;6.68;;;1.85;;
78207;SDS011;67481;50.244;18.288;2023-02-01T08:59:28;7.47;;;2.58;;
78207;SDS011;67481;50.244;18.288;2023-02-01T09:02:18;6.28;;;2.03;;
78207;SDS011;67481;50.244;18.288;2023-02-01T09:05:09;6.40;;;2.33;;
78207;SDS011;67481;50.244;18.288;2023-02-01T09:08:00;6.70;;;2.10;;
78207;SDS011;67481;50.244;18.288;2023-02-01T09:10:51;6.38;;;2.25;;
78207;SDS011;67481;50.244;18.288;2023-02-01T09:13:41;7.55;;;1.98;;
78207;SDS011;67481;50.244;18.288;2023-02-01T09:16:33;7.88;;;2.28;;
78207;SDS011;67481;50.244;18.288;2023-02-01T09:19:23;6.38;;;1.95;;
78207;SDS011;67481;50.244;18.288;2023-02-01T09:22:14;6.90;;;2.40;;
78207;SDS011;67481;50.244;18.288;2023-02-01T09:25:06;6.97;;;2.05;;
78207;SDS011;67481;50.244;18.288;2023-02-01T09:27:57;6.28;;;2.28;;
78207;SDS011;67481;50.244;18.288;2023-02-01T09:30:47;7.13;;;2.42;;
78207;SDS011;67481;50.244;18.288;2023-02-01T09:33:38;6.53;;;2.00;;
78207;SDS011;67481;50.244;18.288;2023-02-01T09:36:30;6.22;;;2.17;;
78207;SDS011;67481;50.244;18.288;2023-02-01T09:39:20;7.93;;;2.35;;
78207;SDS011;67481;50.244;18.288;2023-02-01T09:42:16;7.22;;;2.25;;
78207;SDS011;67481;50.244;18.288;2023-02-01T09:45:27;6.32;;;2.10;;
78207;SDS011;67481;50.244;18.288;2023-02-01T09:48:23;7.60;;;2.10;;
78207;SDS011;67481;50.244;18.288;2023-02-01T09:51:23;7.22;;;2.20;;
78207;SDS011;67481;50.244;18.288;2023-02-01T09:54:18;6.35;;;1.73;;
78207;SDS011;67481;50.244;18.288;2023-02-01T09:57:15;7.93;;;2.55;;
78207;SDS011;67481;50.244;18.288;2023-02-01T10:00:30;6.85;;;1.85;;
78207;SDS011;67481;50.244;18.288;2023-02-01T10:03:20;6.88;;;2.22;;
78207;SDS011;67481;50.244;18.288;2023-02-01T10:06:09;6.00;;;2.00;;
78207;SDS011;67481;50.244;18.288;2023-02-01T10:09:24;7.03;;;2.25;;
78207;SDS011;67481;50.244;18.288;2023-02-01T10:15:39;7.15;;;2.13;;
78207;SDS011;67481;50.244;18.288;2023-02-01T10:18:50;6.72;;;2.08;;
78207;SDS011;67481;50.244;18.288;2023-02-01T10:24:53;7.82;;;2.38;;
78207;SDS011;67481;50.244;18.288;2023-02-01T10:27:47;6.43;;;1.98;;
78207;SDS011;67481;50.244;18.288;2023-02-01T10:30:40;6.55;;;2.15;;
78207;SDS011;67481;50.244;18.288;2023-02-01T10:33:34;8.18;;;2.75;;
78207;SDS011;67481;50.244;18.288;2023-02-01T10:36:32;7.90;;;2.03;;
78207;SDS011;67481;50.244;18.288;2023-02-01T10:39:26;7.63;;;1.98;;
78207;SDS011;67481;50.244;18.288;2023-02-01T10:42:17;6.63;;;1.92;;
78207;SDS011;67481;50.244;18.288;2023-02-01T10:45:17;6.90;;;2.10;;
78207;SDS011;67481;50.244;18.288;2023-02-01T10:48:10;8.93;;;2.40;;
78207;SDS011;67481;50.244;18.288;2023-02-01T10:51:02;7.70;;;2.35;;
78207;SDS011;67481;50.244;18.288;2023-02-01T10:53:58;7.90;;;2.10;;
78207;SDS011;67481;50.244;18.288;2023-02-01T10:56:51;7.15;;;2.40;;
78207;SDS011;67481;50.244;18.288;2023-02-01T10:59:43;7.25;;;2.22;;
78207;SDS011;67481;50.244;18.288;2023-02-01T11:02:35;7.25;;;2.03;;
78207;SDS011;67481;50.244;18.288;2023-02-01T11:05:28;7.32;;;2.17;;
78207;SDS011;67481;50.244;18.288;2023-02-01T11:08:33;7.78;;;1.85;;
78207;SDS011;67481;50.244;18.288;2023-02-01T11:14:39;6.68;;;2.10;;
78207;SDS011;67481;50.244;18.288;2023-02-01T11:17:34;8.68;;;1.98;;
78207;SDS011;67481;50.244;18.288;2023-02-01T11:23:22;7.53;;;2.00;;
78207;SDS011;67481;50.244;18.288;2023-02-01T11:26:19;6.63;;;1.70;;
78207;SDS011;67481;50.244;18.288;2023-02-01T11:29:15;7.15;;;1.73;;
78207;SDS011;67481;50.244;18.288;2023-02-01T11:32:09;7.13;;;1.73;;
78207;SDS011;67481;50.244;18.288;2023-02-01T11:35:02;6.15;;;2.00;;
78207;SDS011;67481;50.244;18.288;2023-02-01T11:37:55;6.80;;;1.75;;
78207;SDS011;67481;50.244;18.288;2023-02-01T11:40:49;5.65;;;1.90;;
78207;SDS011;67481;50.244;18.288;2023-02-01T11:46:44;6.00;;;1.60;;
78207;SDS011;67481;50.244;18.288;2023-02-01T11:49:35;6.55;;;1.88;;
78207;SDS011;67481;50.244;18.288;2023-02-01T12:02:03;7.38;;;2.17;;
78207;SDS011;67481;50.244;18.288;2023-02-01T12:11:22;5.60;;;1.55;;
78207;SDS011;67481;50.244;18.288;2023-02-01T12:20:35;7.30;;;1.98;;
78207;SDS011;67481;50.244;18.288;2023-02-01T12:23:52;6.80;;;1.80;;
78207;SDS011;67481;50.244;18.288;2023-02-01T12:39:25;6.15;;;2.17;;
78207;SDS011;67481;50.244;18.288;2023-02-01T12:42:26;8.00;;;1.65;;
78207;SDS011;67481;50.244;18.288;2023-02-01T12:45:25;7.60;;;2.13;;
78207;SDS011;67481;50.244;18.288;2023-02-01T12:51:20;7.13;;;1.90;;
78207;SDS011;67481;50.244;18.288;2023-02-01T12:54:20;8.35;;;2.05;;
78207;SDS011;67481;50.244;18.288;2023-02-01T12:57:15;7.63;;;2.38;;
78207;SDS011;67481;50.244;18.288;2023-02-01T13:00:41;7.18;;;2.33;;
78207;SDS011;67481;50.244;18.288;2023-02-01T13:03:39;7.18;;;2.30;;
78207;SDS011;67481;50.244;18.288;2023-02-01T13:06:34;7.82;;;2.17;;
78207;SDS011;67481;50.244;18.288;2023-02-01T13:09:29;6.90;;;1.85;;
78207;SDS011;67481;50.244;18.288;2023-02-01T13:12:36;6.63;;;1.92;;
78207;SDS011;67481;50.244;18.288;2023-02-01T13:15:30;5.95;;;1.88;;
78207;SDS011;67481;50.244;18.288;2023-02-01T13:18:24;6.32;;;2.40;;
78207;SDS011;67481;50.244;18.288;2023-02-01T13:21:21;11.05;;;2.88;;
78207;SDS011;67481;50.244;18.288;2023-02-01T13:27:26;12.30;;;3.67;;
78207;SDS011;67481;50.244;18.288;2023-02-01T13:30:22;11.10;;;3.08;;
78207;SDS011;67481;50.244;18.288;2023-02-01T13:42:43;7.05;;;2.13;;
78207;SDS011;67481;50.244;18.288;2023-02-01T13:45:42;6.78;;;2.38;;
78207;SDS011;67481;50.244;18.288;2023-02-01T13:48:46;7.70;;;1.95;;
78207;SDS011;67481;50.244;18.288;2023-02-01T13:51:45;7.30;;;2.08;;
78207;SDS011;67481;50.244;18.288;2023-02-01T13:54:37;6.15;;;1.48;;
78207;SDS011;67481;50.244;18.288;2023-02-01T13:57:39;7.10;;;1.65;;
78207;SDS011;67481;50.244;18.288;2023-02-01T14:00:31;7.90;;;1.75;;
78207;SDS011;67481;50.244;18.288;2023-02-01T14:03:23;6.97;;;1.92;;
78207;SDS011;67481;50.244;18.288;2023-02-01T14:06:38;5.38;;;1.77;;
78207;SDS011;67481;50.244;18.288;2023-02-01T14:09:33;4.95;;;1.70;;
78207;SDS011;67481;50.244;18.288;2023-02-01T14:12:43;5.72;;;1.52;;
78207;SDS011;67481;50.244;18.288;2023-02-01T14:15:36;6.13;;;1.55;;
78207;SDS011;67481;50.244;18.288;2023-02-01T14:21:30;5.35;;;1.50;;
78207;SDS011;67481;50.244;18.288;2023-02-01T14:24:30;5.18;;;1.52;;
78207;SDS011;67481;50.244;18.288;2023-02-01T14:27:23;6.93;;;1.70;;
78207;SDS011;67481;50.244;18.288;2023-02-01T14:30:15;5.32;;;1.60;;
78207;SDS011;67481;50.244;18.288;2023-02-01T14:33:20;7.18;;;1.60;;
78207;SDS011;67481;50.244;18.288;2023-02-01T14:36:12;6.43;;;1.90;;
78207;SDS011;67481;50.244;18.288;2023-02-01T14:39:04;5.35;;;1.35;;
78207;SDS011;67481;50.244;18.288;2023-02-01T14:41:56;6.28;;;1.52;;
78207;SDS011;67481;50.244;18.288;2023-02-01T14:44:44;5.80;;;1.50;;
78207;SDS011;67481;50.244;18.288;2023-02-01T14:47:34;5.80;;;1.20;;
78207;SDS011;67481;50.244;18.288;2023-02-01T14:53:36;7.10;;;1.40;;
78207;SDS011;67481;50.244;18.288;2023-02-01T14:56:27;4.72;;;1.27;;
78207;SDS011;67481;50.244;18.288;2023-02-01T14:59:18;10.82;;;1.67;;
78207;SDS011;67481;50.244;18.288;2023-02-01T15:02:23;5.75;;;1.80;;
78207;SDS011;67481;50.244;18.288;2023-02-01T15:05:22;6.82;;;1.77;;
78207;SDS011;67481;50.244;18.288;2023-02-01T15:08:17;5.00;;;1.20;;
78207;SDS011;67481;50.244;18.288;2023-02-01T15:11:12;6.03;;;1.48;;
78207;SDS011;67481;50.244;18.288;2023-02-01T15:14:11;4.05;;;1.20;;
78207;SDS011;67481;50.244;18.288;2023-02-01T15:17:15;4.60;;;1.35;;
78207;SDS011;67481;50.244;18.288;2023-02-01T15:20:16;4.28;;;1.05;;
78207;SDS011;67481;50.244;18.288;2023-02-01T15:23:15;5.30;;;1.50;;
78207;SDS011;67481;50.244;18.288;2023-02-01T15:26:07;4.95;;;1.40;;
78207;SDS011;67481;50.244;18.288;2023-02-01T15:28:58;4.63;;;0.90;;
78207;SDS011;67481;50.244;18.288;2023-02-01T15:31:49;4.35;;;1.08;;
78207;SDS011;67481;50.244;18.288;2023-02-01T15:34:48;6.60;;;1.23;;
78207;SDS011;67481;50.244;18.288;2023-02-01T15:37:39;4.78;;;1.30;;
78207;SDS011;67481;50.244;18.288;2023-02-01T15:40:30;5.70;;;1.13;;
78207;SDS011;67481;50.244;18.288;2023-02-01T15:43:21;6.03;;;1.20;;
78207;SDS011;67481;50.244;18.288;2023-02-01T15:46:19;5.47;;;1.40;;
78207;SDS011;67481;50.244;18.288;2023-02-01T15:49:26;4.15;;;1.15;;
78207;SDS011;67481;50.244;18.288;2023-02-01T15:52:35;4.60;;;1.23;;
78207;SDS011;67481;50.244;18.288;2023-02-01T15:58:24;5.00;;;1.10;;
78207;SDS011;67481;50.244;18.288;2023-02-01T16:01:15;4.18;;;1.20;;
78207;SDS011;67481;50.244;18.288;2023-02-01T16:04:13;5.10;;;1.10;;
78207;SDS011;67481;50.244;18.288;2023-02-01T16:07:20;3.35;;;0.90;;
78207;SDS011;67481;50.244;18.288;2023-02-01T16:10:20;5.38;;;1.15;;
78207;SDS011;67481;50.244;18.288;2023-02-01T16:16:06;5.78;;;1.52;;
78207;SDS011;67481;50.244;18.288;2023-02-01T16:19:02;5.20;;;1.30;;
78207;SDS011;67481;50.244;18.288;2023-02-01T16:21:52;5.05;;;1.13;;
78207;SDS011;67481;50.244;18.288;2023-02-01T16:24:46;4.97;;;1.52;;
78207;SDS011;67481;50.244;18.288;2023-02-01T16:27:36;6.45;;;1.30;;
78207;SDS011;67481;50.244;18.288;2023-02-01T16:30:27;6.03;;;1.30;;
78207;SDS011;67481;50.244;18.288;2023-02-01T16:33:19;6.18;;;1.38;;
78207;SDS011;67481;50.244;18.288;2023-02-01T16:36:11;7.47;;;1.23;;
78207;SDS011;67481;50.244;18.288;2023-02-01T16:39:03;6.93;;;1.02;;
78207;SDS011;67481;50.244;18.288;2023-02-01T16:41:54;5.10;;;1.08;;
78207;SDS011;67481;50.244;18.288;2023-02-01T16:44:40;6.13;;;1.45;;
78207;SDS011;67481;50.244;18.288;2023-02-01T16:47:30;6.07;;;1.48;;
78207;SDS011;67481;50.244;18.288;2023-02-01T16:50:22;4.60;;;1.20;;
78207;SDS011;67481;50.244;18.288;2023-02-01T16:53:14;5.32;;;1.40;;
78207;SDS011;67481;50.244;18.288;2023-02-01T16:56:14;6.60;;;1.15;;
78207;SDS011;67481;50.244;18.288;2023-02-01T16:59:06;4.55;;;1.27;;
78207;SDS011;67481;50.244;18.288;2023-02-01T17:01:58;5.60;;;1.50;;
78207;SDS011;67481;50.244;18.288;2023-02-01T17:04:43;7.35;;;1.60;;
78207;SDS011;67481;50.244;18.288;2023-02-01T17:07:34;5.05;;;1.10;;
78207;SDS011;67481;50.244;18.288;2023-02-01T17:10:25;5.10;;;1.50;;
78207;SDS011;67481;50.244;18.288;2023-02-01T17:13:16;11.65;;;1.38;;
78207;SDS011;67481;50.244;18.288;2023-02-01T17:16:20;8.60;;;1.30;;
78207;SDS011;67481;50.244;18.288;2023-02-01T17:19:13;6.93;;;1.42;;
78207;SDS011;67481;50.244;18.288;2023-02-01T17:22:07;7.13;;;1.85;;
78207;SDS011;67481;50.244;18.288;2023-02-01T17:24:58;15.48;;;3.42;;
78207;SDS011;67481;50.244;18.288;2023-02-01T17:27:48;16.83;;;4.25;;
78207;SDS011;67481;50.244;18.288;2023-02-01T17:30:39;17.85;;;3.50;;
78207;SDS011;67481;50.244;18.288;2023-02-01T17:33:31;13.63;;;3.45;;
78207;SDS011;67481;50.244;18.288;2023-02-01T17:36:24;17.85;;;3.47;;
78207;SDS011;67481;50.244;18.288;2023-02-01T17:39:16;17.55;;;3.70;;
78207;SDS011;67481;50.244;18.288;2023-02-01T17:42:28;13.65;;;2.70;;
78207;SDS011;67481;50.244;18.288;2023-02-01T17:45:23;11.15;;;2.50;;
78207;SDS011;67481;50.244;18.288;2023-02-01T17:48:25;12.50;;;2.65;;
78207;SDS011;67481;50.244;18.288;2023-02-01T17:51:16;10.85;;;2.50;;
78207;SDS011;67481;50.244;18.288;2023-02-01T17:54:13;14.18;;;2.88;;
78207;SDS011;67481;50.244;18.288;2023-02-01T17:57:08;13.77;;;2.88;;
78207;SDS011;67481;50.244;18.288;2023-02-01T18:00:01;14.40;;;3.00;;
78207;SDS011;67481;50.244;18.288;2023-02-01T18:02:53;11.00;;;3.00;;
78207;SDS011;67481;50.244;18.288;2023-02-01T18:05:46;13.82;;;2.55;;
78207;SDS011;67481;50.244;18.288;2023-02-01T18:08:40;11.90;;;2.38;;
78207;SDS011;67481;50.244;18.288;2023-02-01T18:15:28;56.08;;;35.00;;
78207;SDS011;67481;50.244;18.288;2023-02-01T18:18:20;75.63;;;40.08;;
78207;SDS011;67481;50.244;18.288;2023-02-01T18:21:08;63.80;;;33.08;;
78207;SDS011;67481;50.244;18.288;2023-02-01T18:23:54;38.72;;;17.35;;
78207;SDS011;67481;50.244;18.288;2023-02-01T18:26:41;51.40;;;20.67;;
78207;SDS011;67481;50.244;18.288;2023-02-01T18:29:27;33.33;;;15.20;;
78207;SDS011;67481;50.244;18.288;2023-02-01T18:32:17;39.42;;;17.33;;
78207;SDS011;67481;50.244;18.288;2023-02-01T18:38:11;72.93;;;20.55;;
78207;SDS011;67481;50.244;18.288;2023-02-01T18:41:01;43.50;;;15.80;;
78207;SDS011;67481;50.244;18.288;2023-02-01T18:43:49;40.33;;;13.63;;
78207;SDS011;67481;50.244;18.288;2023-02-01T18:46:40;37.55;;;13.93;;
78207;SDS011;67481;50.244;18.288;2023-02-01T18:49:26;73.35;;;20.27;;
78207;SDS011;67481;50.244;18.288;2023-02-01T18:52:17;42.67;;;15.90;;
78207;SDS011;67481;50.244;18.288;2023-02-01T19:00:15;207.93;;;39.83;;
78207;SDS011;67481;50.244;18.288;2023-02-01T19:03:02;91.43;;;24.58;;
78207;SDS011;67481;50.244;18.288;2023-02-01T19:05:48;43.47;;;15.48;;
78207;SDS011;67481;50.244;18.288;2023-02-01T19:08:38;102.63;;;23.45;;
78207;SDS011;67481;50.244;18.288;2023-02-01T19:11:25;47.80;;;15.98;;
78207;SDS011;67481;50.244;18.288;2023-02-01T19:14:11;50.40;;;17.48;;
78207;SDS011;67481;50.244;18.288;2023-02-01T19:16:57;84.63;;;32.33;;
78207;SDS011;67481;50.244;18.288;2023-02-01T19:19:44;68.30;;;18.33;;
78207;SDS011;67481;50.244;18.288;2023-02-01T19:22:59;102.78;;;25.35;;
78207;SDS011;67481;50.244;18.288;2023-02-01T19:25:47;99.32;;;22.83;;
78207;SDS011;67481;50.244;18.288;2023-02-01T19:28:33;49.42;;;18.25;;
78207;SDS011;67481;50.244;18.288;2023-02-01T19:37:56;45.63;;;13.38;;
78207;SDS011;67481;50.244;18.288;2023-02-01T19:40:45;64.95;;;19.65;;
78207;SDS011;67481;50.244;18.288;2023-02-01T19:43:39;136.43;;;31.92;;
78207;SDS011;67481;50.244;18.288;2023-02-01T19:46:30;86.03;;;21.90;;
78207;SDS011;67481;50.244;18.288;2023-02-01T19:49:23;77.28;;;22.48;;
78207;SDS011;67481;50.244;18.288;2023-02-01T19:52:10;89.47;;;21.90;;
78207;SDS011;67481;50.244;18.288;2023-02-01T19:54:56;61.22;;;18.73;;
78207;SDS011;67481;50.244;18.288;2023-02-01T19:57:43;74.53;;;21.35;;
78207;SDS011;67481;50.244;18.288;2023-02-01T20:00:29;84.60;;;22.88;;
78207;SDS011;67481;50.244;18.288;2023-02-01T20:03:23;73.95;;;21.00;;
78207;SDS011;67481;50.244;18.288;2023-02-01T20:10:48;30.00;;;10.40;;
78207;SDS011;67481;50.244;18.288;2023-02-01T20:13:36;28.02;;;6.97;;
78207;SDS011;67481;50.244;18.288;2023-02-01T20:16:25;39.75;;;13.52;;
78207;SDS011;67481;50.244;18.288;2023-02-01T20:26:04;39.70;;;11.55;;
78207;SDS011;67481;50.244;18.288;2023-02-01T20:29:54;43.05;;;14.27;;
78207;SDS011;67481;50.244;18.288;2023-02-01T20:33:22;41.55;;;14.65;;
78207;SDS011;67481;50.244;18.288;2023-02-01T20:36:20;45.47;;;13.00;;
78207;SDS011;67481;50.244;18.288;2023-02-01T20:39:43;48.00;;;14.10;;
78207;SDS011;67481;50.244;18.288;2023-02-01T20:42:37;33.47;;;8.20;;
78207;SDS011;67481;50.244;18.288;2023-02-01T20:45:30;34.75;;;11.45;;
78207;SDS011;67481;50.244;18.288;2023-02-01T20:48:30;26.05;;;8.75;;
78207;SDS011;67481;50.244;18.288;2023-02-01T20:51:21;43.40;;;10.07;;
78207;SDS011;67481;50.244;18.288;2023-02-01T20:54:11;29.92;;;9.60;;
78207;SDS011;67481;50.244;18.288;2023-02-01T20:56:57;21.23;;;7.90;;
78207;SDS011;67481;50.244;18.288;2023-02-01T20:59:43;31.10;;;11.02;;
78207;SDS011;67481;50.244;18.288;2023-02-01T21:02:28;34.60;;;10.73;;
78207;SDS011;67481;50.244;18.288;2023-02-01T21:15:20;23.25;;;7.65;;
78207;SDS011;67481;50.244;18.288;2023-02-01T21:18:19;15.80;;;4.88;;
78207;SDS011;67481;50.244;18.288;2023-02-01T21:21:12;9.07;;;2.67;;
78207;SDS011;67481;50.244;18.288;2023-02-01T21:24:09;17.65;;;4.22;;
78207;SDS011;67481;50.244;18.288;2023-02-01T21:26:55;23.88;;;7.90;;
78207;SDS011;67481;50.244;18.288;2023-02-01T21:29:41;18.73;;;6.13;;
78207;SDS011;67481;50.244;18.288;2023-02-01T21:32:28;13.15;;;4.43;;
78207;SDS011;67481;50.244;18.288;2023-02-01T21:35:17;19.77;;;5.95;;
78207;SDS011;67481;50.244;18.288;2023-02-01T21:38:13;20.70;;;4.57;;
78207;SDS011;67481;50.244;18.288;2023-02-01T21:41:04;20.73;;;6.97;;
78207;SDS011;67481;50.244;18.288;2023-02-01T21:44:30;25.73;;;7.30;;
78207;SDS011;67481;50.244;18.288;2023-02-01T21:47:17;15.88;;;5.15;;
78207;SDS011;67481;50.244;18.288;2023-02-01T21:50:06;15.82;;;6.15;;
78207;SDS011;67481;50.244;18.288;2023-02-01T21:53:12;9.20;;;2.30;;
78207;SDS011;67481;50.244;18.288;2023-02-01T21:56:01;21.15;;;6.50;;
78207;SDS011;67481;50.244;18.288;2023-02-01T21:58:50;13.48;;;3.67;;
78207;SDS011;67481;50.244;18.288;2023-02-01T22:01:36;15.65;;;5.45;;
78207;SDS011;67481;50.244;18.288;2023-02-01T22:04:22;20.27;;;5.90;;
78207;SDS011;67481;50.244;18.288;2023-02-01T22:07:08;12.35;;;4.47;;
78207;SDS011;67481;50.244;18.288;2023-02-01T22:09:57;16.60;;;5.22;;
78207;SDS011;67481;50.244;18.288;2023-02-01T22:12:43;14.80;;;4.00;;
78207;SDS011;67481;50.244;18.288;2023-02-01T22:15:32;13.02;;;3.90;;
78207;SDS011;67481;50.244;18.288;2023-02-01T22:18:19;9.77;;;2.15;;
78207;SDS011;67481;50.244;18.288;2023-02-01T22:21:04;9.35;;;3.58;;
78207;SDS011;67481;50.244;18.288;2023-02-01T22:23:50;7.75;;;2.58;;
78207;SDS011;67481;50.244;18.288;2023-02-01T22:26:43;3.13;;;1.08;;
78207;SDS011;67481;50.244;18.288;2023-02-01T22:29:29;8.63;;;2.28;;
78207;SDS011;67481;50.244;18.288;2023-02-01T22:32:15;6.97;;;2.22;;
78207;SDS011;67481;50.244;18.288;2023-02-01T22:35:04;9.57;;;3.15;;
78207;SDS011;67481;50.244;18.288;2023-02-01T22:37:53;5.25;;;1.38;;
78207;SDS011;67481;50.244;18.288;2023-02-01T22:40:38;4.57;;;1.67;;
78207;SDS011;67481;50.244;18.288;2023-02-01T22:43:29;3.70;;;0.73;;
78207;SDS011;67481;50.244;18.288;2023-02-01T22:46:21;4.95;;;1.02;;
78207;SDS011;67481;50.244;18.288;2023-02-01T22:49:20;7.22;;;2.28;;
78207;SDS011;67481;50.244;18.288;2023-02-01T22:52:06;3.63;;;0.82;;
78207;SDS011;67481;50.244;18.288;2023-02-01T22:54:54;4.70;;;1.30;;
78207;SDS011;67481;50.244;18.288;2023-02-01T22:57:44;3.83;;;0.82;;
78207;SDS011;67481;50.244;18.288;2023-02-01T23:00:29;4.95;;;1.15;;
78207;SDS011;67481;50.244;18.288;2023-02-01T23:03:19;5.13;;;1.35;;
78207;SDS011;67481;50.244;18.288;2023-02-01T23:06:07;3.95;;;0.93;;
78207;SDS011;67481;50.244;18.288;2023-02-01T23:09:01;5.18;;;1.10;;
78207;SDS011;67481;50.244;18.288;2023-02-01T23:12:16;5.97;;;0.77;;
78207;SDS011;67481;50.244;18.288;2023-02-01T23:15:19;5.25;;;0.80;;
78207;SDS011;67481;50.244;18.288;2023-02-01T23:18:24;5.25;;;1.20;;
78207;SDS011;67481;50.244;18.288;2023-02-01T23:21:59;5.25;;;1.00;;
78207;SDS011;67481;50.244;18.288;2023-02-01T23:29:26;3.97;;;1.17;;
78207;SDS011;67481;50.244;18.288;2023-02-01T23:33:20;5.32;;;1.40;;
78207;SDS011;67481;50.244;18.288;2023-02-01T23:36:48;6.00;;;1.30;;
78207;SDS011;67481;50.244;18.288;2023-02-01T23:44:11;2.38;;;0.70;;
78207;SDS011;67481;50.244;18.288;2023-02-01T23:47:40;4.38;;;0.73;;
78207;SDS011;67481;50.244;18.288;2023-02-01T23:52:00;4.30;;;1.05;;
